createdAt,value
2022-10-03T00:04:00.230Z,11.63
2022-10-03T00:05:42.531Z,13.48
2022-10-03T00:07:01.668Z,11.57
2022-10-03T00:08:20.400Z,11.10
2022-10-03T00:09:40.380Z,13.20
2022-10-03T00:11:09.892Z,12.52
2022-10-03T00:12:54.386Z,12.20
2022-10-03T00:15:04.554Z,13.55
2022-10-03T00:15:57.382Z,15.63
2022-10-03T00:17:28.834Z,10.65
2022-10-03T00:18:42.470Z,13.48
2022-10-03T00:19:53.045Z,14.57
2022-10-03T00:21:16.889Z,14.93
2022-10-03T00:22:45.867Z,14.75
2022-10-03T00:24:18.340Z,12.38
2022-10-03T00:25:47.307Z,13.85
2022-10-03T00:27:16.638Z,11.88
2022-10-03T00:29:01.631Z,10.23
2022-10-03T00:30:26.707Z,12.23
2022-10-03T00:32:03.849Z,12.60
2022-10-03T00:33:57.996Z,12.40
2022-10-03T00:35:36.862Z,13.27
2022-10-03T00:37:14.285Z,11.30
2022-10-03T00:39:16.599Z,13.25
2022-10-03T00:41:12.068Z,14.05
2022-10-03T00:43:18.377Z,12.60
2022-10-03T00:45:27.918Z,10.68
2022-10-03T00:48:04.063Z,14.93
2022-10-03T00:49:44.249Z,13.85
2022-10-03T00:51:19.643Z,16.20
2022-10-03T00:53:14.066Z,14.70
2022-10-03T00:55:14.476Z,13.75
2022-10-03T00:57:00.822Z,14.23
2022-10-03T00:58:47.151Z,14.45
2022-10-03T01:02:34.574Z,14.85
2022-10-03T01:04:16.320Z,14.98
2022-10-03T01:06:23.785Z,17.10
2022-10-03T01:08:22.679Z,17.10
2022-10-03T01:10:09.819Z,18.13
2022-10-03T01:12:23.971Z,16.58
2022-10-03T01:13:56.561Z,12.77
2022-10-03T01:15:34.979Z,17.65
2022-10-03T01:17:18.005Z,18.13
2022-10-03T01:18:51.611Z,17.52
2022-10-03T01:20:15.803Z,16.25
2022-10-03T01:21:31.364Z,12.77
2022-10-03T01:23:18.300Z,15.32
2022-10-03T01:24:49.365Z,14.88
2022-10-03T01:26:08.512Z,14.20
2022-10-03T01:27:16.635Z,13.13
2022-10-03T01:28:59.062Z,15.77
2022-10-03T01:30:23.701Z,13.98
2022-10-03T01:31:50.896Z,15.80
2022-10-03T01:34:49.863Z,12.05
2022-10-03T01:35:57.722Z,16.73
2022-10-03T01:37:11.875Z,14.13
2022-10-03T01:38:21.009Z,12.23
2022-10-03T01:39:28.811Z,12.98
2022-10-03T01:40:37.983Z,11.23
2022-10-03T01:41:50.940Z,12.52
2022-10-03T01:43:16.090Z,9.05
2022-10-03T01:44:55.777Z,11.63
2022-10-03T01:46:13.865Z,10.43
2022-10-03T01:47:23.741Z,13.50
2022-10-03T01:49:01.969Z,13.25
2022-10-03T01:50:14.129Z,10.57
2022-10-03T01:53:27.670Z,13.38
2022-10-03T01:58:05.492Z,15.40
2022-10-03T01:59:24.405Z,13.07
2022-10-03T02:00:40.430Z,13.60
2022-10-03T02:01:51.691Z,12.50
2022-10-03T02:03:07.060Z,11.02
2022-10-03T02:04:17.104Z,10.18
2022-10-03T02:05:48.122Z,12.10
2022-10-03T02:06:55.870Z,10.65
2022-10-03T02:08:20.718Z,14.70
2022-10-03T02:09:34.798Z,9.95
2022-10-03T02:10:44.494Z,12.63
2022-10-03T02:12:18.779Z,12.60
2022-10-03T02:13:59.270Z,13.27
2022-10-03T02:15:31.889Z,11.98
2022-10-03T02:16:45.212Z,10.95
2022-10-03T02:17:56.644Z,12.93
2022-10-03T02:19:06.744Z,11.35
2022-10-03T02:20:30.306Z,10.93
2022-10-03T02:21:52.101Z,14.02
2022-10-03T02:23:44.006Z,11.82
2022-10-03T02:26:02.423Z,14.20
2022-10-03T02:27:23.055Z,14.27
2022-10-03T02:28:49.652Z,16.42
2022-10-03T02:30:09.558Z,12.27
2022-10-03T02:32:14.102Z,12.60
2022-10-03T02:33:44.753Z,12.75
2022-10-03T02:35:32.657Z,14.43
2022-10-03T02:42:05.063Z,12.88
2022-10-03T02:43:43.910Z,23.98
2022-10-03T02:45:49.662Z,15.32
2022-10-03T02:47:34.555Z,15.52
2022-10-03T02:49:16.073Z,15.85
2022-10-03T02:51:00.201Z,11.85
2022-10-03T02:53:10.142Z,12.13
2022-10-03T02:54:40.935Z,13.00
2022-10-03T02:56:04.736Z,10.90
2022-10-03T02:57:48.991Z,13.27
2022-10-03T02:59:29.844Z,15.48
2022-10-03T03:01:16.478Z,16.15
2022-10-03T03:02:46.982Z,20.23
2022-10-03T03:04:15.044Z,14.95
2022-10-03T03:05:26.735Z,16.95
2022-10-03T03:06:44.305Z,18.75
2022-10-03T03:08:21.417Z,10.82
2022-10-03T03:09:59.600Z,12.00
2022-10-03T03:11:26.635Z,9.45
2022-10-03T03:13:10.486Z,13.73
2022-10-03T03:14:49.931Z,17.25
2022-10-03T03:16:33.490Z,13.70
2022-10-03T03:17:55.816Z,14.93
2022-10-03T03:19:39.910Z,15.93
2022-10-03T03:20:58.044Z,14.65
2022-10-03T03:22:18.269Z,11.52
2022-10-03T03:23:42.381Z,14.00
2022-10-03T03:25:00.638Z,16.45
2022-10-03T03:26:16.231Z,12.57
2022-10-03T03:27:31.784Z,9.93
2022-10-03T03:28:42.298Z,15.20
2022-10-03T03:29:52.690Z,11.50
2022-10-03T03:31:07.075Z,15.57
2022-10-03T03:32:39.057Z,11.85
2022-10-03T03:33:57.183Z,15.27
2022-10-03T03:35:12.453Z,9.85
2022-10-03T03:37:09.219Z,10.05
2022-10-03T03:40:30.099Z,9.90
2022-10-03T03:41:47.767Z,10.60
2022-10-03T03:43:19.101Z,12.20
2022-10-03T03:44:48.459Z,13.25
2022-10-03T03:46:17.028Z,11.05
2022-10-03T03:47:36.825Z,14.60
2022-10-03T03:48:55.609Z,11.82
2022-10-03T03:50:43.883Z,8.75
2022-10-03T03:52:42.286Z,9.63
2022-10-03T03:54:05.037Z,15.35
2022-10-03T03:55:41.274Z,10.80
2022-10-03T03:58:12.040Z,11.48
2022-10-03T03:59:43.681Z,7.47
2022-10-03T04:01:17.759Z,12.43
2022-10-03T04:02:39.242Z,8.52
2022-10-03T04:03:54.713Z,9.07
2022-10-03T04:06:16.662Z,11.23
2022-10-03T04:06:59.528Z,10.05
2022-10-03T04:08:18.312Z,15.60
2022-10-03T04:09:37.011Z,13.70
2022-10-03T04:10:50.292Z,12.98
2022-10-03T04:12:05.770Z,10.63
2022-10-03T04:13:20.548Z,13.05
2022-10-03T04:15:45.721Z,10.25
2022-10-03T04:17:15.451Z,9.25
2022-10-03T04:19:06.814Z,11.77
2022-10-03T04:20:16.341Z,15.40
2022-10-03T04:24:06.638Z,7.20
2022-10-03T04:25:55.200Z,11.73
2022-10-03T04:27:11.971Z,12.20
2022-10-03T04:28:53.900Z,9.68
2022-10-03T04:30:05.891Z,10.00
2022-10-03T04:31:20.851Z,8.93
2022-10-03T04:32:47.001Z,12.05
2022-10-03T04:34:01.420Z,11.93
2022-10-03T04:35:23.533Z,10.23
2022-10-03T04:36:59.850Z,14.50
2022-10-03T04:38:13.975Z,10.57
2022-10-03T04:39:25.067Z,10.70
2022-10-03T04:40:39.442Z,12.25
2022-10-03T04:41:50.374Z,10.20
2022-10-03T04:43:06.494Z,11.43
2022-10-03T04:44:17.708Z,8.80
2022-10-03T04:45:40.838Z,16.42
2022-10-03T04:46:49.123Z,17.63
2022-10-03T04:47:55.401Z,17.30
2022-10-03T04:49:02.762Z,10.93
2022-10-03T04:50:23.315Z,7.90
2022-10-03T04:51:41.627Z,11.85
2022-10-03T04:52:51.845Z,8.13
2022-10-03T04:54:02.534Z,14.70
2022-10-03T04:55:12.718Z,6.55
2022-10-03T04:56:45.497Z,8.23
2022-10-03T04:57:54.375Z,9.75
2022-10-03T04:59:05.070Z,9.80
2022-10-03T05:00:23.871Z,11.23
2022-10-03T05:01:37.028Z,15.25
2022-10-03T05:02:54.231Z,9.35
2022-10-03T05:04:05.242Z,10.95
2022-10-03T05:05:18.584Z,10.40
2022-10-03T05:06:36.637Z,8.85
2022-10-03T05:07:46.730Z,7.57
2022-10-03T05:08:59.135Z,8.20
2022-10-03T05:10:16.128Z,11.93
2022-10-03T05:11:25.680Z,10.27
2022-10-03T05:12:35.634Z,8.90
2022-10-03T05:13:51.861Z,11.70
2022-10-03T05:15:07.652Z,9.07
2022-10-03T05:16:18.906Z,10.27
2022-10-03T05:17:26.688Z,8.20
2022-10-03T05:18:35.423Z,10.18
2022-10-03T05:19:52.473Z,11.73
2022-10-03T05:20:59.087Z,11.45
2022-10-03T05:22:05.099Z,11.30
2022-10-03T05:23:19.809Z,8.95
2022-10-03T05:24:30.269Z,8.77
2022-10-03T05:25:43.089Z,11.05
2022-10-03T05:26:52.138Z,11.10
2022-10-03T05:28:02.176Z,12.43
2022-10-03T05:29:13.453Z,8.18
2022-10-03T05:30:22.611Z,10.32
2022-10-03T05:31:39.965Z,10.73
2022-10-03T05:32:48.817Z,8.18
2022-10-03T05:34:01.489Z,10.43
2022-10-03T05:35:22.181Z,10.38
2022-10-03T05:36:35.140Z,7.20
2022-10-03T05:38:12.767Z,10.15
2022-10-03T05:39:27.376Z,10.98
2022-10-03T05:40:34.113Z,8.57
2022-10-03T05:41:38.340Z,8.95
2022-10-03T05:43:02.500Z,8.13
2022-10-03T05:44:09.924Z,10.25
2022-10-03T05:45:25.220Z,11.50
2022-10-03T05:46:43.847Z,10.80
2022-10-03T05:47:51.238Z,8.68
2022-10-03T05:49:04.874Z,6.90
2022-10-03T05:50:58.052Z,9.73
2022-10-03T05:52:19.798Z,8.32
2022-10-03T05:53:48.959Z,12.02
2022-10-03T05:55:05.931Z,13.10
2022-10-03T05:56:15.417Z,9.98
2022-10-03T05:57:58.314Z,12.90
2022-10-03T05:59:26.230Z,14.20
2022-10-03T06:00:41.800Z,11.38
2022-10-03T06:02:22.639Z,13.15
2022-10-03T06:04:06.748Z,11.32
2022-10-03T06:05:17.164Z,8.60
2022-10-03T06:06:46.949Z,8.82
2022-10-03T06:08:53.315Z,10.77
2022-10-03T06:10:22.978Z,9.10
2022-10-03T06:12:10.508Z,24.23
2022-10-03T06:13:21.105Z,18.92
2022-10-03T06:14:49.587Z,15.35
2022-10-03T06:16:01.109Z,16.63
2022-10-03T06:18:04.355Z,14.32
2022-10-03T06:19:15.523Z,6.93
2022-10-03T06:20:58.938Z,10.70
2022-10-03T06:22:46.452Z,8.80
2022-10-03T06:24:30.352Z,12.48
2022-10-03T06:26:09.878Z,14.75
2022-10-03T06:28:02.688Z,10.60
2022-10-03T06:29:52.419Z,9.35
2022-10-03T06:31:22.313Z,8.57
2022-10-03T06:32:59.300Z,9.38
2022-10-03T06:34:49.039Z,6.15
2022-10-03T06:36:16.475Z,11.40
2022-10-03T06:37:53.377Z,10.35
2022-10-03T06:39:30.510Z,9.38
2022-10-03T06:41:19.670Z,9.52
2022-10-03T06:42:59.510Z,7.97
2022-10-03T06:44:17.281Z,8.52
2022-10-03T06:45:45.578Z,5.68
2022-10-03T06:47:21.472Z,9.40
2022-10-03T06:48:51.850Z,5.45
2022-10-03T06:50:21.570Z,11.20
2022-10-03T06:51:57.890Z,6.95
2022-10-03T06:53:27.160Z,9.35
2022-10-03T06:55:16.103Z,7.35
2022-10-03T06:56:49.006Z,6.65
2022-10-03T06:58:17.385Z,7.05
2022-10-03T07:00:07.231Z,7.28
2022-10-03T07:02:07.383Z,4.85
2022-10-03T07:03:38.508Z,7.38
2022-10-03T07:05:00.137Z,8.00
2022-10-03T07:06:37.431Z,8.63
2022-10-03T07:08:16.671Z,8.30
2022-10-03T07:10:03.501Z,7.13
2022-10-03T07:11:20.713Z,6.55
2022-10-03T07:12:55.670Z,10.75
2022-10-03T07:14:22.998Z,9.82
2022-10-03T07:17:40.495Z,9.30
2022-10-03T07:19:16.252Z,6.05
2022-10-03T07:20:45.619Z,9.07
2022-10-03T07:22:21.821Z,7.20
2022-10-03T07:23:48.178Z,9.43
2022-10-03T07:25:26.110Z,8.77
2022-10-03T07:26:50.548Z,7.88
2022-10-03T07:28:38.936Z,8.05
2022-10-03T07:30:00.649Z,8.30
2022-10-03T07:31:10.331Z,4.82
2022-10-03T07:32:27.489Z,9.45
2022-10-03T07:34:14.244Z,7.85
2022-10-03T07:35:56.991Z,5.97
2022-10-03T07:37:33.701Z,6.03
2022-10-03T07:39:10.500Z,5.88
2022-10-03T07:40:26.302Z,6.97
2022-10-03T07:42:00.980Z,9.07
2022-10-03T07:43:40.230Z,6.88
2022-10-03T07:45:08.279Z,7.47
2022-10-03T07:46:53.554Z,9.68
2022-10-03T07:48:28.769Z,7.28
2022-10-03T07:49:57.803Z,9.85
2022-10-03T07:51:16.129Z,5.53
2022-10-03T07:52:39.681Z,7.75
2022-10-03T07:54:22.018Z,7.05
2022-10-03T07:55:34.401Z,6.80
2022-10-03T07:57:04.916Z,11.52
2022-10-03T07:58:37.753Z,7.70
2022-10-03T08:00:22.961Z,6.70
2022-10-03T08:01:46.415Z,7.65
2022-10-03T08:03:15.906Z,7.38
2022-10-03T08:04:35.890Z,5.72
2022-10-03T08:06:03.759Z,10.45
2022-10-03T08:07:27.010Z,5.03
2022-10-03T08:09:00.450Z,4.57
2022-10-03T08:10:13.166Z,8.15
2022-10-03T08:11:50.138Z,5.88
2022-10-03T08:13:07.342Z,6.82
2022-10-03T08:14:20.625Z,11.50
2022-10-03T08:17:35.978Z,5.90
2022-10-03T08:19:10.338Z,7.90
2022-10-03T08:20:37.592Z,11.00
2022-10-03T08:21:58.408Z,8.27
2022-10-03T08:23:16.171Z,4.57
2022-10-03T08:24:33.149Z,4.85
2022-10-03T08:25:57.789Z,10.55
2022-10-03T08:27:28.365Z,8.85
2022-10-03T08:29:05.557Z,5.00
2022-10-03T08:30:25.738Z,5.82
2022-10-03T08:31:53.907Z,5.97
2022-10-03T08:33:02.069Z,6.25
2022-10-03T08:34:24.072Z,3.50
2022-10-03T08:35:46.781Z,4.03
2022-10-03T08:37:31.882Z,3.90
2022-10-03T08:38:51.885Z,4.72
2022-10-03T08:40:38.230Z,5.63
2022-10-03T08:42:24.531Z,5.38
2022-10-03T08:44:04.552Z,3.92
2022-10-03T08:45:45.489Z,5.25
2022-10-03T08:47:04.820Z,7.10
2022-10-03T08:48:42.852Z,6.63
2022-10-03T08:50:19.585Z,10.52
2022-10-03T08:51:51.149Z,5.47
2022-10-03T08:53:17.266Z,4.65
2022-10-03T08:54:40.580Z,5.20
2022-10-03T08:55:55.948Z,5.13
2022-10-03T08:57:19.924Z,6.28
2022-10-03T08:58:49.808Z,7.00
2022-10-03T09:00:17.560Z,5.07
2022-10-03T09:01:30.334Z,8.10
2022-10-03T09:03:28.579Z,3.65
2022-10-03T09:04:57.623Z,4.28
2022-10-03T09:06:52.693Z,7.47
2022-10-03T09:08:33.286Z,9.90
2022-10-03T09:10:14.521Z,6.00
2022-10-03T09:11:39.940Z,7.03
2022-10-03T09:13:22.793Z,6.20
2022-10-03T09:14:59.570Z,6.57
2022-10-03T09:16:39.713Z,3.42
2022-10-03T09:18:08.483Z,6.50
2022-10-03T09:19:52.496Z,7.72
2022-10-03T09:21:37.314Z,4.55
2022-10-03T09:22:55.458Z,4.00
2022-10-03T09:24:26.270Z,5.10
2022-10-03T09:25:41.983Z,4.32
2022-10-03T09:27:13.831Z,4.15
2022-10-03T09:28:40.812Z,3.08
2022-10-03T09:30:19.909Z,4.97
2022-10-03T09:31:55.753Z,6.45
2022-10-03T09:33:46.694Z,6.03
2022-10-03T09:35:23.187Z,5.00
2022-10-03T09:37:06.049Z,4.82
2022-10-03T09:38:47.611Z,3.00
2022-10-03T09:40:31.971Z,3.55
2022-10-03T09:41:55.872Z,7.03
2022-10-03T09:43:48.460Z,2.55
2022-10-03T09:45:31.336Z,3.90
2022-10-03T09:47:08.407Z,9.45
2022-10-03T09:48:28.821Z,4.45
2022-10-03T09:50:11.581Z,5.53
2022-10-03T09:51:40.410Z,5.00
2022-10-03T09:53:02.676Z,4.50
2022-10-03T09:54:37.007Z,3.15
2022-10-03T09:55:52.577Z,3.08
2022-10-03T09:57:42.408Z,4.43
2022-10-03T09:59:00.815Z,2.45
2022-10-03T10:00:19.544Z,4.47
2022-10-03T10:01:31.350Z,4.40
2022-10-03T10:03:22.570Z,3.25
2022-10-03T10:04:55.743Z,4.22
2022-10-03T10:06:24.682Z,5.72
2022-10-03T10:08:12.630Z,6.38
2022-10-03T10:09:49.281Z,7.93
2022-10-03T10:11:10.862Z,8.10
2022-10-03T10:12:47.440Z,5.40
2022-10-03T10:14:33.958Z,4.18
2022-10-03T10:16:13.982Z,3.95
2022-10-03T10:17:46.284Z,4.10
2022-10-03T10:19:06.928Z,3.10
2022-10-03T10:20:27.871Z,4.07
2022-10-03T10:22:08.536Z,3.67
2022-10-03T10:23:38.121Z,4.32
2022-10-03T10:25:25.331Z,4.35
2022-10-03T10:26:46.379Z,2.58
2022-10-03T10:28:14.739Z,3.63
2022-10-03T10:29:41.829Z,11.88
2022-10-03T10:31:12.729Z,11.32
2022-10-03T10:32:54.500Z,3.95
2022-10-03T10:34:27.290Z,3.70
2022-10-03T10:35:53.537Z,5.28
2022-10-03T10:37:47.198Z,2.30
2022-10-03T10:39:29.041Z,2.65
2022-10-03T10:41:06.700Z,3.88
2022-10-03T10:42:45.412Z,4.80
2022-10-03T10:44:35.002Z,3.17
2022-10-03T10:45:47.390Z,3.58
2022-10-03T10:47:27.601Z,3.42
2022-10-03T10:49:05.421Z,3.58
2022-10-03T10:50:47.059Z,4.50
2022-10-03T10:52:24.289Z,3.83
2022-10-03T10:54:17.161Z,4.20
2022-10-03T10:55:47.291Z,5.22
2022-10-03T10:57:40.742Z,3.22
2022-10-03T10:59:16.910Z,4.95
2022-10-03T11:00:25.699Z,5.15
2022-10-03T11:02:20.353Z,2.55
2022-10-03T11:03:58.295Z,5.50
2022-10-03T11:05:32.520Z,2.92
2022-10-03T11:07:14.769Z,2.83
2022-10-03T11:09:01.066Z,4.13
2022-10-03T11:10:32.200Z,2.10
2022-10-03T11:12:03.972Z,3.90
2022-10-03T11:13:54.059Z,4.05
2022-10-03T11:15:36.403Z,3.08
2022-10-03T11:17:19.044Z,2.67
2022-10-03T11:18:47.968Z,2.50
2022-10-03T11:20:19.369Z,2.78
2022-10-03T11:21:59.541Z,2.00
2022-10-03T11:23:36.632Z,2.38
2022-10-03T11:25:13.214Z,4.78
2022-10-03T11:26:51.663Z,1.58
2022-10-03T11:28:38.563Z,2.00
2022-10-03T11:30:31.623Z,1.55
2022-10-03T11:32:14.408Z,3.17
2022-10-03T11:34:07.021Z,1.85
2022-10-03T11:35:54.736Z,1.80
2022-10-03T11:37:09.012Z,2.03
2022-10-03T11:38:19.404Z,1.92
2022-10-03T11:39:29.391Z,2.20
2022-10-03T11:40:38.820Z,2.00
2022-10-03T11:41:49.460Z,4.43
2022-10-03T11:42:58.116Z,3.33
2022-10-03T11:44:22.262Z,3.85
2022-10-03T11:45:31.365Z,5.85
2022-10-03T11:47:09.459Z,3.70
2022-10-03T11:48:38.147Z,2.75
2022-10-03T11:50:25.142Z,2.33
2022-10-03T11:51:39.095Z,3.17
2022-10-03T11:52:54.161Z,3.05
2022-10-03T11:54:26.305Z,2.65
2022-10-03T11:55:33.321Z,2.17
2022-10-03T11:56:39.969Z,2.55
2022-10-03T11:58:04.501Z,2.33
2022-10-03T11:59:34.114Z,4.78
2022-10-03T12:00:39.240Z,2.55
2022-10-03T12:01:56.086Z,1.65
2022-10-03T12:03:22.517Z,1.70
2022-10-03T12:04:31.299Z,3.67
2022-10-03T12:05:48.783Z,3.85
2022-10-03T12:07:25.009Z,2.50
2022-10-03T12:08:50.457Z,2.45
2022-10-03T12:10:04.449Z,1.77
2022-10-03T12:11:14.856Z,3.25
2022-10-03T12:12:28.173Z,1.80
2022-10-03T12:13:38.487Z,3.28
2022-10-03T12:14:46.999Z,2.05
2022-10-03T12:15:51.553Z,3.65
2022-10-03T12:17:07.981Z,3.42
2022-10-03T12:18:16.970Z,3.72
2022-10-03T12:19:31.212Z,2.25
2022-10-03T12:20:57.278Z,2.85
2022-10-03T12:22:09.771Z,2.60
2022-10-03T12:23:26.264Z,2.67
2022-10-03T12:24:33.800Z,2.22
2022-10-03T12:25:39.210Z,5.30
2022-10-03T12:26:49.650Z,3.00
2022-10-03T12:28:03.924Z,1.70
2022-10-03T12:29:11.742Z,2.50
2022-10-03T12:30:18.680Z,1.75
2022-10-03T12:31:26.503Z,2.17
2022-10-03T12:32:36.620Z,3.42
2022-10-03T12:33:50.886Z,1.88
2022-10-03T12:35:02.203Z,1.42
2022-10-03T12:36:11.029Z,3.08
2022-10-03T12:37:33.873Z,3.95
2022-10-03T12:39:02.959Z,2.00
2022-10-03T12:40:12.849Z,2.20
2022-10-03T12:41:26.457Z,2.13
2022-10-03T12:42:32.479Z,4.13
2022-10-03T12:43:51.898Z,2.58
2022-10-03T12:45:00.390Z,2.20
2022-10-03T12:46:12.805Z,2.50
2022-10-03T12:47:51.191Z,1.92
2022-10-03T12:48:58.571Z,2.25
2022-10-03T12:50:09.186Z,2.60
2022-10-03T12:51:27.769Z,2.35
2022-10-03T12:52:35.376Z,3.25
2022-10-03T12:53:51.767Z,1.85
2022-10-03T12:55:07.795Z,2.83
2022-10-03T12:56:19.020Z,1.75
2022-10-03T12:57:51.929Z,5.00
2022-10-03T12:59:05.298Z,5.18
2022-10-03T13:00:17.471Z,2.13
2022-10-03T13:01:35.459Z,2.80
2022-10-03T13:02:41.897Z,2.45
2022-10-03T13:03:52.407Z,2.78
2022-10-03T13:05:20.440Z,3.63
2022-10-03T13:07:02.737Z,3.40
2022-10-03T13:08:18.662Z,3.55
2022-10-03T13:09:28.039Z,6.25
2022-10-03T13:10:42.175Z,6.55
2022-10-03T13:11:55.679Z,3.85
2022-10-03T13:13:13.963Z,3.40
2022-10-03T13:14:27.760Z,3.00
2022-10-03T13:15:45.504Z,2.55
2022-10-03T13:17:01.420Z,3.00
2022-10-03T13:18:10.080Z,2.42
2022-10-03T13:19:17.654Z,4.32
2022-10-03T13:20:26.536Z,2.38
2022-10-03T13:21:46.540Z,3.40
2022-10-03T13:23:11.726Z,2.38
2022-10-03T13:24:23.771Z,3.33
2022-10-03T13:25:34.641Z,3.92
2022-10-03T13:26:50.793Z,3.08
2022-10-03T13:28:00.759Z,2.70
2022-10-03T13:29:17.488Z,3.10
2022-10-03T13:30:24.492Z,6.30
2022-10-03T13:31:31.434Z,3.53
2022-10-03T13:32:38.332Z,3.53
2022-10-03T13:33:43.952Z,4.18
2022-10-03T13:35:21.380Z,2.35
2022-10-03T13:36:29.373Z,3.92
2022-10-03T13:37:37.800Z,3.25
2022-10-03T13:39:06.017Z,3.30
2022-10-03T13:40:16.219Z,4.43
2022-10-03T13:41:30.260Z,2.85
2022-10-03T13:42:40.170Z,4.28
2022-10-03T13:43:49.045Z,5.20
2022-10-03T13:44:56.571Z,3.80
2022-10-03T13:46:01.652Z,4.20
2022-10-03T13:47:26.761Z,4.93
2022-10-03T13:48:32.998Z,3.38
2022-10-03T13:49:40.628Z,2.72
2022-10-03T13:50:48.998Z,4.82
2022-10-03T13:51:59.670Z,5.85
2022-10-03T13:53:07.455Z,4.50
2022-10-03T13:54:14.219Z,4.20
2022-10-03T13:55:31.188Z,4.60
2022-10-03T13:56:44.325Z,4.57
2022-10-03T13:58:04.760Z,5.53
2022-10-03T13:59:22.363Z,4.20
2022-10-03T14:00:26.813Z,11.88
2022-10-03T14:01:37.135Z,6.40
2022-10-03T14:03:00.258Z,7.93
2022-10-03T14:04:40.304Z,9.60
2022-10-03T14:06:02.151Z,4.93
2022-10-03T14:07:13.819Z,17.98
2022-10-03T14:08:30.420Z,9.30
2022-10-03T14:09:39.511Z,4.85
2022-10-03T14:11:09.720Z,3.30
2022-10-03T14:12:38.183Z,2.97
2022-10-03T14:14:16.509Z,4.05
2022-10-03T14:15:28.985Z,4.68
2022-10-03T14:16:34.798Z,5.50
2022-10-03T14:17:46.669Z,7.53
2022-10-03T14:18:55.817Z,8.38
2022-10-03T14:20:19.950Z,6.25
2022-10-03T14:21:47.388Z,4.35
2022-10-03T14:23:02.450Z,5.05
2022-10-03T14:24:17.323Z,4.15
2022-10-03T14:25:25.059Z,2.72
2022-10-03T14:26:38.371Z,3.97
2022-10-03T14:27:51.273Z,3.38
2022-10-03T14:28:59.688Z,2.75
2022-10-03T14:30:10.720Z,4.28
2022-10-03T14:31:19.483Z,3.53
2022-10-03T14:32:46.887Z,2.88
2022-10-03T14:33:58.699Z,6.10
2022-10-03T14:35:07.285Z,4.82
2022-10-03T14:36:26.437Z,1.90
2022-10-03T14:37:40.363Z,2.75
2022-10-03T14:39:02.446Z,4.18
2022-10-03T14:40:17.738Z,5.35
2022-10-03T14:41:26.177Z,3.30
2022-10-03T14:42:54.146Z,3.38
2022-10-03T14:43:59.195Z,2.83
2022-10-03T14:45:08.184Z,2.65
2022-10-03T14:46:11.952Z,3.65
2022-10-03T14:47:18.790Z,4.18
2022-10-03T14:48:24.641Z,5.43
2022-10-03T14:49:53.547Z,4.43
2022-10-03T14:51:05.646Z,3.92
2022-10-03T14:52:17.448Z,4.22
2022-10-03T14:53:25.449Z,3.33
2022-10-03T14:54:30.202Z,4.13
2022-10-03T14:55:40.258Z,5.60
2022-10-03T14:56:47.219Z,5.05
2022-10-03T14:59:14.825Z,6.95
2022-10-03T15:00:48.018Z,4.93
2022-10-03T15:01:53.882Z,8.57
2022-10-03T15:03:04.056Z,4.85
2022-10-03T15:04:10.987Z,5.72
2022-10-03T15:05:17.030Z,6.10
2022-10-03T15:07:56.802Z,7.13
2022-10-03T15:09:02.793Z,7.07
2022-10-03T15:10:10.521Z,6.97
2022-10-03T15:11:21.959Z,7.28
2022-10-03T15:12:28.979Z,4.47
2022-10-03T15:13:37.150Z,8.82
2022-10-03T15:14:44.462Z,8.30
2022-10-03T15:15:50.981Z,5.45
2022-10-03T15:16:57.110Z,5.97
2022-10-03T15:18:42.819Z,6.30
2022-10-03T15:19:57.399Z,11.73
2022-10-03T15:21:01.030Z,13.45
2022-10-03T15:22:14.712Z,8.63
2022-10-03T15:23:26.798Z,33.15
2022-10-03T15:24:57.539Z,35.08
2022-10-03T15:26:05.357Z,9.75
2022-10-03T15:27:20.572Z,10.75
2022-10-03T15:28:29.702Z,21.02
2022-10-03T15:29:58.170Z,44.92
2022-10-03T15:31:10.574Z,17.80
2022-10-03T15:32:22.857Z,7.43
2022-10-03T15:33:31.354Z,7.57
2022-10-03T15:34:48.797Z,11.95
2022-10-03T15:35:59.399Z,8.98
2022-10-03T15:37:11.113Z,9.35
2022-10-03T15:38:16.958Z,5.43
2022-10-03T15:39:27.137Z,4.35
2022-10-03T15:40:33.591Z,7.40
2022-10-03T15:41:45.064Z,10.18
2022-10-03T15:43:28.191Z,6.85
2022-10-03T15:44:39.557Z,6.72
2022-10-03T15:45:44.228Z,9.18
2022-10-03T15:46:49.552Z,9.65
2022-10-03T15:48:00.495Z,7.38
2022-10-03T15:49:09.059Z,5.75
2022-10-03T15:50:21.281Z,6.20
2022-10-03T15:51:30.851Z,4.20
2022-10-03T15:52:52.700Z,5.50
2022-10-03T15:53:59.594Z,7.88
2022-10-03T15:55:11.869Z,6.70
2022-10-03T15:56:22.547Z,5.93
2022-10-03T15:57:30.726Z,7.68
2022-10-03T15:58:46.129Z,7.78
2022-10-03T15:59:57.239Z,5.82
2022-10-03T16:01:22.295Z,9.35
2022-10-03T16:02:32.348Z,5.63
2022-10-03T16:03:44.380Z,9.90
2022-10-03T16:04:48.644Z,8.43
2022-10-03T16:06:00.974Z,6.72
2022-10-03T16:07:09.760Z,6.82
2022-10-03T16:08:20.919Z,6.38
2022-10-03T16:09:27.602Z,11.45
2022-10-03T16:11:00.335Z,9.35
2022-10-03T16:12:29.971Z,7.63
2022-10-03T16:13:52.056Z,3.95
2022-10-03T16:15:01.220Z,24.13
2022-10-03T16:16:20.609Z,11.35
2022-10-03T16:17:31.324Z,6.03
2022-10-03T16:18:51.401Z,11.48
2022-10-03T16:20:22.120Z,5.90
2022-10-03T16:21:45.950Z,10.15
2022-10-03T16:22:52.399Z,26.33
2022-10-03T16:23:56.779Z,4.22
2022-10-03T16:25:06.873Z,6.13
2022-10-03T16:26:19.090Z,12.30
2022-10-03T16:27:25.932Z,13.88
2022-10-03T16:28:34.925Z,15.02
2022-10-03T16:29:43.139Z,12.45
2022-10-03T16:31:35.336Z,23.08
2022-10-03T16:33:11.709Z,8.73
2022-10-03T16:34:17.084Z,11.73
2022-10-03T16:35:34.437Z,12.48
2022-10-03T16:36:43.610Z,10.68
2022-10-03T16:37:49.620Z,5.32
2022-10-03T16:39:00.063Z,6.60
2022-10-03T16:40:24.779Z,8.82
2022-10-03T16:41:32.012Z,19.52
2022-10-03T16:42:41.415Z,15.00
2022-10-03T16:44:15.643Z,11.77
2022-10-03T16:47:19.746Z,25.10
2022-10-03T16:48:46.630Z,24.60
2022-10-03T16:50:24.048Z,9.48
2022-10-03T16:52:56.399Z,22.75
2022-10-03T16:54:00.940Z,10.27
2022-10-03T16:55:06.830Z,18.50
2022-10-03T16:56:24.369Z,9.43
2022-10-03T16:57:35.031Z,17.92
2022-10-03T16:58:42.445Z,14.23
2022-10-03T16:59:49.910Z,39.15
2022-10-03T17:01:25.969Z,8.50
2022-10-03T17:02:30.773Z,22.73
2022-10-03T17:03:41.043Z,15.27
2022-10-03T17:04:50.999Z,16.38
2022-10-03T17:06:03.109Z,14.27
2022-10-03T17:07:13.778Z,9.02
2022-10-03T17:08:40.583Z,7.13
2022-10-03T17:09:47.630Z,7.80
2022-10-03T17:10:55.569Z,7.47
2022-10-03T17:12:02.266Z,5.35
2022-10-03T17:13:13.490Z,11.57
2022-10-03T17:14:19.862Z,9.10
2022-10-03T17:15:26.627Z,10.60
2022-10-03T17:16:44.888Z,6.53
2022-10-03T17:18:00.424Z,10.43
2022-10-03T17:20:57.668Z,8.82
2022-10-03T17:22:15.638Z,20.52
2022-10-03T17:24:28.189Z,15.18
2022-10-03T17:25:51.229Z,22.10
2022-10-03T17:26:56.465Z,6.95
2022-10-03T17:28:03.287Z,5.72
2022-10-03T17:29:25.016Z,9.57
2022-10-03T17:30:34.530Z,9.73
2022-10-03T17:32:14.100Z,18.27
2022-10-03T17:33:25.958Z,27.42
2022-10-03T17:34:42.249Z,7.65
2022-10-03T17:40:05.237Z,30.88
2022-10-03T17:41:21.897Z,21.88
2022-10-03T17:42:43.887Z,20.65
2022-10-03T17:44:13.111Z,37.05
2022-10-03T17:45:39.932Z,30.52
2022-10-03T17:47:05.050Z,25.05
2022-10-03T17:48:16.113Z,30.63
2022-10-03T17:49:39.163Z,20.58
2022-10-03T17:51:29.351Z,23.48
2022-10-03T17:52:34.811Z,31.35
2022-10-03T17:53:47.216Z,15.43
2022-10-03T17:54:59.000Z,30.73
2022-10-03T17:56:32.042Z,20.60
2022-10-03T17:59:42.565Z,18.50
2022-10-03T18:01:48.111Z,16.23
2022-10-03T18:03:08.980Z,20.45
2022-10-03T18:04:32.511Z,14.88
2022-10-03T18:05:44.460Z,19.52
2022-10-03T18:07:10.615Z,13.85
2022-10-03T18:08:41.674Z,8.30
2022-10-03T18:09:51.550Z,16.92
2022-10-03T18:11:01.511Z,11.75
2022-10-03T18:12:22.002Z,14.05
2022-10-03T18:13:40.606Z,11.00
2022-10-03T18:14:59.178Z,16.33
2022-10-03T18:16:28.095Z,11.80
2022-10-03T18:17:36.046Z,11.10
2022-10-03T18:19:09.289Z,8.95
2022-10-03T18:21:40.461Z,11.88
2022-10-03T18:22:40.703Z,18.60
2022-10-03T18:24:12.612Z,12.13
2022-10-03T18:25:40.798Z,16.50
2022-10-03T18:26:48.289Z,11.07
2022-10-03T18:28:20.665Z,7.60
2022-10-03T18:29:35.652Z,8.98
2022-10-03T18:31:02.068Z,13.63
2022-10-03T18:32:19.568Z,9.55
2022-10-03T18:33:51.570Z,9.52
2022-10-03T18:37:55.169Z,8.75
2022-10-03T18:39:07.080Z,10.25
2022-10-03T18:40:37.403Z,10.35
2022-10-03T18:41:46.660Z,10.55
2022-10-03T18:42:50.939Z,8.55
2022-10-03T18:44:00.369Z,16.95
2022-10-03T18:45:04.468Z,12.60
2022-10-03T18:46:29.591Z,8.20
2022-10-03T18:47:58.486Z,13.70
2022-10-03T18:49:33.333Z,9.20
2022-10-03T18:50:58.317Z,10.25
2022-10-03T18:52:22.171Z,9.50
2022-10-03T18:53:35.392Z,7.32
2022-10-03T18:54:50.716Z,11.18
2022-10-03T18:56:01.713Z,10.43
2022-10-03T18:57:35.811Z,11.90
2022-10-03T18:59:03.207Z,13.60
2022-10-03T19:00:18.422Z,18.17
2022-10-03T19:01:56.101Z,10.90
2022-10-03T19:03:14.470Z,14.68
2022-10-03T19:04:21.298Z,13.82
2022-10-03T19:05:33.206Z,7.85